This is the latest recevied weather packets stored in our database for station/object wb2ifs-13. If no packets are shown the sender has not sent any weather packets the latest 10 day(s).
| Time | Temp. | Humidity | Pressure | Rain* | Wind** | Luminosity | Snow |
|---|---|---|---|---|---|---|---|
| 1777977899 | 16.11° C | 65% | 1013.1 hPa | 0 mm | - | - | - |
| 1777976999 | 16.11° C | 64% | 1013 hPa | 0 mm | - | - | - |
| 1777976098 | 16.67° C | 63% | 1012.9 hPa | 0 mm | - | - | - |
| 1777975199 | 16.11° C | 63% | 1012.7 hPa | 0 mm | - | - | - |
| 1777974299 | 16.11° C | 63% | 1012.5 hPa | 0 mm | - | - | - |
| 1777973399 | 16.11° C | 62% | 1012.4 hPa | 0 mm | - | - | - |
| 1777972499 | 16.67° C | 62% | 1012.4 hPa | 0 mm | - | - | - |
| 1777971599 | 16.67° C | 62% | 1012.4 hPa | 0 mm | - | - | - |
| 1777970699 | 16.67° C | 62% | 1012.3 hPa | 0 mm | - | - | - |
| 1777969798 | 16.67° C | 63% | 1012.3 hPa | 0 mm | - | - | - |
| 1777968898 | 16.11° C | 63% | 1012.2 hPa | 0 mm | - | - | - |
| 1777967999 | 16.11° C | 63% | 1012.3 hPa | 0 mm | - | - | - |
| 1777967099 | 16.11° C | 63% | 1012.3 hPa | 0 mm | - | - | - |
| 1777966199 | 16.11° C | 64% | 1012.2 hPa | 0 mm | - | - | - |
| 1777965299 | 16.11° C | 64% | 1012.2 hPa | 0 mm | - | - | - |
| 1777964398 | 16.11° C | 63% | 1012.2 hPa | 0 mm | - | - | - |
| 1777963500 | 16.11° C | 63% | 1012.2 hPa | 0 mm | - | - | - |
| 1777962600 | 16.11° C | 64% | 1012.2 hPa | 0 mm | - | - | - |
| 1777961698 | 15.56° C | 65% | 1012.2 hPa | 0 mm | - | - | - |
| 1777960798 | 15° C | 67% | 1012.1 hPa | 0 mm | - | - | - |
| 1777959898 | 15° C | 68% | 1012.1 hPa | 0 mm | - | - | - |
| 1777959002 | 15° C | 67% | 1012.1 hPa | 0 mm | - | - | - |
| 1777958098 | 15.56° C | 65% | 1012.3 hPa | 0 mm | - | - | - |
| 1777957200 | 16.11° C | 61% | 1012.3 hPa | 0 mm | - | - | - |
| 1777956299 | 17.22° C | 60% | 1012.4 hPa | 0 mm | - | - | - |
* Rain latest hour (hover to see other rain measurements)
** Current wind speed in m/s (hover to see current wind gust speed)